Collins Center, New York
Current Conditions -  °F | °C
As of 4:53 AM on Saturday 25 Oct 2014 (Local Time) from KDKK Reporting Station
Overcast Overcast  
Wind Chill: 52°   Ceiling: 4400
Heat Index: 52°   Visibility: 10mi
Dew Point: 46°   Wind: 6mph
Humidity: 80%   Direction: 190°S
Pressure: 29.88"   Gusts: NA
Location:  42.49°N, 78.85°W
Report Text: KDKK 250853Z AUTO 19005KT 10SM OVC044 11/08 A2988 RMK AO2 SLP119 T01110078 58016
Loading
Personal Weather Stations






























Interactive Weather Map
Tropical Storm Tracking
New forecast layout! Learn more

10-Day Weather Forecast

Advertisements
Track Severe Weather on mobile